createdAt,value
2022-11-24T00:01:09.985Z,11.56
2022-11-24T00:03:37.816Z,11.56
2022-11-24T00:06:07.437Z,11.73
2022-11-24T00:08:37.328Z,11.59
2022-11-24T00:11:06.409Z,11.65
2022-11-24T00:13:34.934Z,11.95
2022-11-24T00:16:11.407Z,11.49
2022-11-24T00:18:40.319Z,11.53
2022-11-24T00:21:08.567Z,11.87
2022-11-24T00:23:38.540Z,11.82
2022-11-24T00:26:08.148Z,11.89
2022-11-24T00:28:36.774Z,11.74
2022-11-24T00:31:06.183Z,12.07
2022-11-24T00:33:34.036Z,12.04
2022-11-24T00:36:01.860Z,12.12
2022-11-24T00:38:29.626Z,11.88
2022-11-24T00:40:58.677Z,11.92
2022-11-24T00:43:26.468Z,12.01
2022-11-24T00:45:54.336Z,12.02
2022-11-24T00:48:23.393Z,11.84
2022-11-24T00:50:57.351Z,11.77
2022-11-24T00:53:25.304Z,11.50
2022-11-24T00:55:53.296Z,11.50
2022-11-24T00:58:22.927Z,11.42
2022-11-24T01:00:51.071Z,11.49
2022-11-24T01:03:20.608Z,11.61
2022-11-24T01:05:48.586Z,11.72
2022-11-24T01:08:16.420Z,11.65
2022-11-24T01:10:44.198Z,11.54
2022-11-24T01:13:13.247Z,11.64
2022-11-24T01:15:42.443Z,11.61
2022-11-24T01:18:11.072Z,11.52
2022-11-24T01:20:38.877Z,11.59
2022-11-24T01:23:07.563Z,11.59
2022-11-24T01:25:35.237Z,11.15
2022-11-24T01:28:02.960Z,11.30
2022-11-24T01:30:30.693Z,11.44
2022-11-24T01:32:59.785Z,11.44
2022-11-24T01:35:27.524Z,11.28
2022-11-24T01:37:55.188Z,11.47
2022-11-24T01:40:22.928Z,11.32
2022-11-24T01:42:53.101Z,11.40
2022-11-24T01:45:35.149Z,11.58
2022-11-24T01:48:08.037Z,11.55
2022-11-24T01:50:37.399Z,11.31
2022-11-24T01:53:05.892Z,11.53
2022-11-24T01:55:37.606Z,11.58
2022-11-24T01:58:07.389Z,11.55
2022-11-24T02:00:37.431Z,11.58
2022-11-24T02:03:06.654Z,11.47
2022-11-24T02:05:40.880Z,11.60
2022-11-24T02:08:15.301Z,11.73
2022-11-24T02:10:45.287Z,11.67
2022-11-24T02:13:14.144Z,11.58
2022-11-24T02:15:41.992Z,11.76
2022-11-24T02:18:11.391Z,11.67
2022-11-24T02:20:39.130Z,11.62
2022-11-24T02:23:16.633Z,11.60
2022-11-24T02:25:52.966Z,11.57
2022-11-24T02:28:24.772Z,11.49
2022-11-24T02:30:53.614Z,11.38
2022-11-24T02:33:25.212Z,11.37
2022-11-24T02:35:53.273Z,11.39
2022-11-24T02:38:30.532Z,11.38
2022-11-24T02:41:00.356Z,11.47
2022-11-24T02:43:33.709Z,11.63
2022-11-24T02:46:01.456Z,11.69
2022-11-24T02:48:29.285Z,11.63
2022-11-24T02:50:56.985Z,11.55
2022-11-24T02:53:24.928Z,11.51
2022-11-24T02:55:53.063Z,11.53
2022-11-24T02:58:21.117Z,11.59
2022-11-24T03:00:50.266Z,11.48
2022-11-24T03:03:18.256Z,11.63
2022-11-24T03:05:45.949Z,11.52
2022-11-24T03:08:14.015Z,11.56
2022-11-24T03:10:41.691Z,11.29
2022-11-24T03:13:10.025Z,11.47
2022-11-24T03:15:38.134Z,11.61
2022-11-24T03:18:07.320Z,11.65
2022-11-24T03:20:35.049Z,11.49
2022-11-24T03:23:02.870Z,11.54
2022-11-24T03:25:30.621Z,11.47
2022-11-24T03:27:58.584Z,11.39
2022-11-24T03:30:26.336Z,11.47
2022-11-24T03:32:54.733Z,11.37
2022-11-24T03:35:23.846Z,11.50
2022-11-24T03:37:51.500Z,11.41
2022-11-24T03:40:19.444Z,11.45
2022-11-24T03:42:47.561Z,11.39
2022-11-24T03:45:44.337Z,11.42
2022-11-24T03:48:04.116Z,11.34
2022-11-24T03:50:33.186Z,11.20
2022-11-24T03:53:00.924Z,11.21
2022-11-24T03:55:28.911Z,11.36
2022-11-24T03:57:56.585Z,11.20
2022-11-24T04:00:24.368Z,11.15
2022-11-24T04:02:52.158Z,11.09
2022-11-24T04:05:20.025Z,11.09
2022-11-24T04:07:49.208Z,11.10
2022-11-24T04:10:17.003Z,10.93
2022-11-24T04:12:46.464Z,11.07
2022-11-24T04:15:16.209Z,11.04
2022-11-24T04:17:44.125Z,11.16
2022-11-24T04:20:13.476Z,11.23
2022-11-24T04:22:41.513Z,11.18
2022-11-24T04:25:12.059Z,11.27
2022-11-24T04:27:39.945Z,11.27
2022-11-24T04:30:09.093Z,11.32
2022-11-24T04:32:37.005Z,11.34
2022-11-24T04:35:05.377Z,11.35
2022-11-24T04:37:33.224Z,11.26
2022-11-24T04:40:00.972Z,11.23
2022-11-24T04:42:30.034Z,11.05
2022-11-24T04:44:57.783Z,11.23
2022-11-24T04:47:27.070Z,11.13
2022-11-24T04:49:55.427Z,11.11
2022-11-24T04:52:25.507Z,11.16
2022-11-24T04:54:53.621Z,11.14
2022-11-24T04:57:22.940Z,11.17
2022-11-24T04:59:52.719Z,11.01
2022-11-24T05:02:21.018Z,11.09
2022-11-24T05:04:49.005Z,11.17
2022-11-24T05:07:19.252Z,11.17
2022-11-24T05:10:05.256Z,11.24
2022-11-24T05:12:33.031Z,11.21
2022-11-24T05:15:03.472Z,11.30
2022-11-24T05:17:32.828Z,11.22
2022-11-24T05:20:01.301Z,11.06
2022-11-24T05:22:29.808Z,11.08
2022-11-24T05:24:57.521Z,10.96
2022-11-24T05:27:25.760Z,11.08
2022-11-24T05:29:53.492Z,11.05
2022-11-24T05:32:22.678Z,10.98
2022-11-24T05:34:50.486Z,10.97
2022-11-24T05:37:18.361Z,10.91
2022-11-24T05:39:46.268Z,11.01
2022-11-24T05:42:31.663Z,11.02
2022-11-24T05:44:59.665Z,11.03
2022-11-24T05:47:28.836Z,11.10
2022-11-24T05:49:56.517Z,10.91
2022-11-24T05:52:24.742Z,11.07
2022-11-24T05:54:52.447Z,10.96
2022-11-24T05:57:20.245Z,11.09
2022-11-24T05:59:48.058Z,11.10
2022-11-24T06:02:15.892Z,11.08
2022-11-24T06:04:45.166Z,11.05
2022-11-24T06:07:13.667Z,11.12
2022-11-24T06:09:42.836Z,11.17
2022-11-24T06:12:12.400Z,11.21
2022-11-24T06:14:40.524Z,11.39
2022-11-24T06:17:08.631Z,11.34
2022-11-24T06:19:41.520Z,11.36
2022-11-24T06:22:11.170Z,11.41
2022-11-24T06:24:39.000Z,11.32
2022-11-24T06:27:06.816Z,11.36
2022-11-24T06:29:34.553Z,11.22
2022-11-24T06:32:02.474Z,11.16
2022-11-24T06:34:30.268Z,11.15
2022-11-24T06:36:58.305Z,11.11
2022-11-24T06:39:27.497Z,11.11
2022-11-24T06:41:55.240Z,11.21
2022-11-24T06:44:23.375Z,11.22
2022-11-24T06:46:51.180Z,11.28
2022-11-24T06:49:18.995Z,11.33
2022-11-24T06:51:46.777Z,11.16
2022-11-24T06:54:16.724Z,11.18
2022-11-24T06:56:45.815Z,11.19
2022-11-24T06:59:17.753Z,11.35
2022-11-24T07:01:45.620Z,11.25
2022-11-24T07:04:13.615Z,11.27
2022-11-24T07:06:41.523Z,11.36
2022-11-24T07:09:09.812Z,11.40
2022-11-24T07:11:37.944Z,11.38
2022-11-24T07:14:07.129Z,11.33
2022-11-24T07:16:35.490Z,11.17
2022-11-24T07:19:03.355Z,11.14
2022-11-24T07:21:31.542Z,11.13
2022-11-24T07:23:59.926Z,11.16
2022-11-24T07:26:27.717Z,11.15
2022-11-24T07:28:55.488Z,11.21
2022-11-24T07:31:25.931Z,11.29
2022-11-24T07:33:55.384Z,11.42
2022-11-24T07:36:23.824Z,11.48
2022-11-24T07:38:51.836Z,11.51
2022-11-24T07:41:21.116Z,11.68
2022-11-24T07:43:50.565Z,11.79
2022-11-24T07:46:20.057Z,11.83
2022-11-24T07:48:49.587Z,11.85
2022-11-24T07:51:17.539Z,11.83
2022-11-24T07:53:46.359Z,11.84
2022-11-24T07:56:14.190Z,11.88
2022-11-24T07:58:42.036Z,11.99
2022-11-24T08:01:12.266Z,12.00
2022-11-24T08:03:40.398Z,11.94
2022-11-24T08:06:30.019Z,12.00
2022-11-24T08:08:58.736Z,12.12
2022-11-24T08:11:27.283Z,12.19
2022-11-24T08:13:55.440Z,12.42
2022-11-24T08:16:23.832Z,12.61
2022-11-24T08:18:53.077Z,12.70
2022-11-24T08:21:23.874Z,12.68
2022-11-24T08:23:55.255Z,12.64
2022-11-24T08:26:24.782Z,12.76
2022-11-24T08:28:56.671Z,12.78
2022-11-24T08:31:24.984Z,12.89
2022-11-24T08:33:53.119Z,12.95
2022-11-24T08:36:22.215Z,12.84
2022-11-24T08:38:54.942Z,12.82
2022-11-24T08:41:22.913Z,12.79
2022-11-24T08:43:50.619Z,12.71
2022-11-24T08:46:19.619Z,12.72
2022-11-24T08:48:50.097Z,12.53
2022-11-24T08:51:20.236Z,12.64
2022-11-24T08:53:49.532Z,12.58
2022-11-24T08:56:17.313Z,12.63
2022-11-24T08:58:45.159Z,12.72
2022-11-24T09:01:15.056Z,12.94
2022-11-24T09:03:50.044Z,13.01
2022-11-24T09:06:19.910Z,12.97
2022-11-24T09:08:49.100Z,13.10
2022-11-24T09:11:18.793Z,13.27
2022-11-24T09:13:46.731Z,13.44
2022-11-24T09:16:18.909Z,13.48
2022-11-24T09:18:47.637Z,13.81
2022-11-24T09:21:19.746Z,14.32
2022-11-24T09:23:50.525Z,14.41
2022-11-24T09:26:20.279Z,14.12
2022-11-24T09:28:48.967Z,14.04
2022-11-24T09:31:19.378Z,13.83
2022-11-24T09:33:47.545Z,13.81
2022-11-24T09:36:16.076Z,13.89
2022-11-24T09:38:43.915Z,14.30
2022-11-24T09:41:42.234Z,14.03
2022-11-24T09:44:31.918Z,14.35
2022-11-24T09:47:10.824Z,14.32
2022-11-24T09:49:51.292Z,14.57
2022-11-24T09:52:24.156Z,14.65
2022-11-24T09:55:06.237Z,14.75
2022-11-24T09:57:37.951Z,14.76
2022-11-24T10:00:13.935Z,15.00
2022-11-24T10:02:42.403Z,15.20
2022-11-24T10:05:13.368Z,15.17
2022-11-24T10:07:47.560Z,15.23
2022-11-24T10:10:24.626Z,15.42
2022-11-24T10:13:08.592Z,15.29
2022-11-24T10:15:45.866Z,15.23
2022-11-24T10:18:42.509Z,15.52
2022-11-24T10:21:46.552Z,15.46
2022-11-24T10:24:32.211Z,15.38
2022-11-24T10:27:03.883Z,15.01
2022-11-24T10:29:37.747Z,14.95
2022-11-24T10:32:08.703Z,14.99
2022-11-24T10:34:40.889Z,14.88
2022-11-24T10:37:17.924Z,14.88
2022-11-24T10:39:59.827Z,15.10
2022-11-24T10:42:30.307Z,15.08
2022-11-24T10:45:05.079Z,15.31
2022-11-24T10:47:32.837Z,15.18
2022-11-24T10:50:04.243Z,15.08
2022-11-24T10:52:38.357Z,15.13
2022-11-24T10:55:07.416Z,15.17
2022-11-24T10:57:36.336Z,15.10
2022-11-24T11:00:32.898Z,14.98
2022-11-24T11:03:18.805Z,15.38
2022-11-24T11:05:51.964Z,15.66
2022-11-24T11:08:23.101Z,15.62
2022-11-24T11:10:52.739Z,15.40
2022-11-24T11:13:26.174Z,15.33
2022-11-24T11:15:55.651Z,15.24
2022-11-24T11:18:28.162Z,15.15
2022-11-24T11:20:57.642Z,15.35
2022-11-24T11:23:28.927Z,14.98
2022-11-24T11:26:19.825Z,15.09
2022-11-24T11:34:51.188Z,15.41
2022-11-24T11:37:20.843Z,15.82
2022-11-24T11:39:50.525Z,16.27
2022-11-24T11:43:00.690Z,16.05
2022-11-24T11:45:22.655Z,16.21
2022-11-24T11:47:54.906Z,15.81
2022-11-24T11:50:27.160Z,15.75
2022-11-24T11:53:19.769Z,16.43
2022-11-24T11:56:14.028Z,16.05
2022-11-24T11:59:06.502Z,16.42
2022-11-24T12:01:49.393Z,16.23
2022-11-24T12:04:25.451Z,16.67
2022-11-24T12:07:14.415Z,16.57
2022-11-24T12:09:56.198Z,16.29
2022-11-24T12:12:44.299Z,16.01
2022-11-24T12:15:21.170Z,16.22
2022-11-24T12:17:54.683Z,16.47
2022-11-24T12:20:40.717Z,16.30
2022-11-24T12:23:19.575Z,16.52
2022-11-24T12:25:51.948Z,16.91
2022-11-24T12:28:36.782Z,17.30
2022-11-24T12:31:07.739Z,17.64
2022-11-24T12:34:06.469Z,17.45
2022-11-24T12:36:52.483Z,17.25
2022-11-24T12:39:29.801Z,17.08
2022-11-24T12:42:09.510Z,17.10
2022-11-24T12:44:59.773Z,17.20
2022-11-24T12:47:40.680Z,16.84
2022-11-24T12:50:11.570Z,17.27
2022-11-24T12:52:45.308Z,17.41
2022-11-24T12:55:19.979Z,17.58
2022-11-24T12:57:56.701Z,17.04
2022-11-24T13:00:31.814Z,16.90
2022-11-24T13:03:20.131Z,17.12
2022-11-24T13:05:54.077Z,17.10
2022-11-24T13:08:24.021Z,16.88
2022-11-24T13:10:57.214Z,16.73
2022-11-24T13:13:29.738Z,16.75
2022-11-24T13:16:35.232Z,16.62
2022-11-24T13:19:03.719Z,17.04
2022-11-24T13:21:50.285Z,16.95
2022-11-24T13:24:28.116Z,17.03
2022-11-24T13:27:28.009Z,16.81
2022-11-24T13:29:55.916Z,16.56
2022-11-24T13:33:01.177Z,16.60
2022-11-24T13:35:29.597Z,16.42
2022-11-24T13:37:57.641Z,16.45
2022-11-24T13:40:54.249Z,16.14
2022-11-24T13:43:30.543Z,16.04
2022-11-24T13:45:58.289Z,16.00
2022-11-24T13:49:01.836Z,16.71
2022-11-24T13:51:29.623Z,16.99
2022-11-24T13:54:00.741Z,16.93
2022-11-24T13:56:32.317Z,16.63
2022-11-24T13:59:04.124Z,16.55
2022-11-24T14:01:33.298Z,16.43
2022-11-24T14:07:05.586Z,16.19
2022-11-24T14:09:38.316Z,16.51
2022-11-24T14:12:14.744Z,16.63
2022-11-24T14:14:44.027Z,16.45
2022-11-24T14:17:17.981Z,16.69
2022-11-24T14:19:47.911Z,16.29
2022-11-24T14:22:18.887Z,16.21
2022-11-24T14:24:48.040Z,16.36
2022-11-24T14:27:19.403Z,16.61
2022-11-24T14:29:55.318Z,16.45
2022-11-24T14:32:23.571Z,16.74
2022-11-24T14:34:52.232Z,16.98
2022-11-24T14:37:20.259Z,16.77
2022-11-24T14:39:48.316Z,16.86
2022-11-24T14:42:23.111Z,16.84
2022-11-24T14:44:54.262Z,17.06
2022-11-24T14:47:31.637Z,17.14
2022-11-24T14:50:08.996Z,17.15
2022-11-24T14:52:37.235Z,16.83
2022-11-24T14:55:21.923Z,17.14
2022-11-24T14:57:52.184Z,16.78
2022-11-24T15:00:28.411Z,16.88
2022-11-24T15:03:08.419Z,16.49
2022-11-24T15:05:52.957Z,16.58
2022-11-24T15:08:21.272Z,16.39
2022-11-24T15:10:49.545Z,16.83
2022-11-24T15:13:22.233Z,16.75
2022-11-24T15:16:00.545Z,16.39
2022-11-24T15:18:36.849Z,16.41
2022-11-24T15:21:04.828Z,16.17
2022-11-24T15:23:33.869Z,16.30
2022-11-24T15:26:30.672Z,16.36
2022-11-24T15:29:02.258Z,16.62
2022-11-24T15:31:30.133Z,16.35
2022-11-24T15:33:58.589Z,16.52
2022-11-24T15:36:26.344Z,16.31
2022-11-24T15:38:54.055Z,16.18
2022-11-24T15:41:25.432Z,16.52
2022-11-24T15:43:58.759Z,16.48
2022-11-24T15:46:28.177Z,16.47
2022-11-24T15:48:57.223Z,16.61
2022-11-24T15:51:27.716Z,16.32
2022-11-24T15:54:01.017Z,16.45
2022-11-24T15:56:32.956Z,16.57
2022-11-24T15:59:00.917Z,16.54
2022-11-24T16:01:32.320Z,16.40
2022-11-24T16:04:00.399Z,15.82
2022-11-24T16:06:28.235Z,16.38
2022-11-24T16:08:57.628Z,16.38
2022-11-24T16:11:25.462Z,16.29
2022-11-24T16:13:54.225Z,16.08
2022-11-24T16:16:23.261Z,16.18
2022-11-24T16:18:52.687Z,16.23
2022-11-24T16:21:20.421Z,16.28
2022-11-24T16:23:48.764Z,16.28
2022-11-24T16:26:16.650Z,16.19
2022-11-24T16:28:45.683Z,16.00
2022-11-24T16:31:15.664Z,16.12
2022-11-24T16:33:44.766Z,16.13
2022-11-24T16:36:14.291Z,15.91
2022-11-24T16:38:42.125Z,16.21
2022-11-24T16:41:10.322Z,16.32
2022-11-24T16:43:38.415Z,16.33
2022-11-24T16:46:18.288Z,16.61
2022-11-24T16:48:46.872Z,16.65
2022-11-24T16:51:17.432Z,16.42
2022-11-24T16:53:45.566Z,16.52
2022-11-24T16:56:14.707Z,16.35
2022-11-24T16:58:43.017Z,16.56
2022-11-24T17:01:13.285Z,16.30
2022-11-24T17:03:42.180Z,16.45
2022-11-24T17:06:12.315Z,16.20
2022-11-24T17:08:42.280Z,16.45
2022-11-24T17:11:11.967Z,16.59
2022-11-24T17:13:40.362Z,16.69
2022-11-24T17:16:10.394Z,16.14
2022-11-24T17:18:38.473Z,16.10
2022-11-24T17:21:09.700Z,16.03
2022-11-24T17:23:38.417Z,16.10
2022-11-24T17:26:09.661Z,16.06
2022-11-24T17:28:38.096Z,15.88
2022-11-24T17:31:09.436Z,16.07
2022-11-24T17:33:37.808Z,16.01
2022-11-24T17:36:06.757Z,15.72
2022-11-24T17:38:35.096Z,15.57
2022-11-24T17:41:03.321Z,15.44
2022-11-24T17:43:33.049Z,15.88
2022-11-24T17:46:03.473Z,15.82
2022-11-24T17:48:32.809Z,15.88
2022-11-24T17:51:02.523Z,15.65
2022-11-24T17:53:30.593Z,14.88
2022-11-24T17:56:00.215Z,14.15
2022-11-24T17:58:29.463Z,13.96
2022-11-24T18:00:59.114Z,13.99
2022-11-24T18:03:28.670Z,14.05
2022-11-24T18:05:56.621Z,14.22
2022-11-24T18:08:24.441Z,14.19
2022-11-24T18:10:52.212Z,14.19
2022-11-24T18:13:41.134Z,14.50
2022-11-24T18:16:12.574Z,14.42
2022-11-24T18:18:41.453Z,13.59
2022-11-24T18:21:14.544Z,14.02
2022-11-24T18:23:43.389Z,13.88
2022-11-24T18:26:14.761Z,14.21
2022-11-24T18:28:42.984Z,14.25
2022-11-24T18:31:13.480Z,13.98
2022-11-24T18:33:43.772Z,13.97
2022-11-24T18:36:14.356Z,13.84
2022-11-24T18:38:42.219Z,14.16
2022-11-24T18:41:10.464Z,13.82
2022-11-24T18:43:38.527Z,13.79
2022-11-24T18:46:08.213Z,13.91
2022-11-24T18:48:37.367Z,13.53
2022-11-24T18:51:05.227Z,13.59
2022-11-24T18:53:32.996Z,13.92
2022-11-24T18:56:02.076Z,13.89
2022-11-24T18:58:31.040Z,14.13
2022-11-24T19:01:07.878Z,14.13
2022-11-24T19:03:41.347Z,14.32
2022-11-24T19:06:14.736Z,14.12
2022-11-24T19:08:42.503Z,14.35
2022-11-24T19:11:17.876Z,14.45
2022-11-24T19:13:45.859Z,14.33
2022-11-24T19:16:14.217Z,14.48
2022-11-24T19:18:45.546Z,14.37
2022-11-24T19:21:16.860Z,14.20
2022-11-24T19:23:44.611Z,14.40
2022-11-24T19:26:12.531Z,14.48
2022-11-24T19:28:40.332Z,14.19
2022-11-24T19:31:11.876Z,14.09
2022-11-24T19:33:40.557Z,14.16
2022-11-24T19:36:13.495Z,14.25
2022-11-24T19:38:41.957Z,14.09
2022-11-24T19:41:12.030Z,14.01
2022-11-24T19:43:40.795Z,14.16
2022-11-24T19:46:10.246Z,14.12
2022-11-24T19:48:40.079Z,14.16
2022-11-24T19:51:12.765Z,14.13
2022-11-24T19:53:40.730Z,14.11
2022-11-24T19:56:10.297Z,14.01
2022-11-24T19:58:38.496Z,14.13
2022-11-24T20:01:07.981Z,13.92
2022-11-24T20:03:36.029Z,13.92
2022-11-24T20:06:04.379Z,13.81
2022-11-24T20:08:34.439Z,13.88
2022-11-24T20:11:05.744Z,13.75
2022-11-24T20:13:35.022Z,13.85
2022-11-24T20:16:09.092Z,13.62
2022-11-24T20:18:41.944Z,13.88
2022-11-24T20:21:12.742Z,13.93
2022-11-24T20:23:42.598Z,13.74
2022-11-24T20:26:12.360Z,13.92
2022-11-24T20:28:40.397Z,13.52
2022-11-24T20:31:11.356Z,13.58
2022-11-24T20:33:39.583Z,13.51
2022-11-24T20:36:09.734Z,13.68
2022-11-24T20:38:38.367Z,13.39
2022-11-24T20:41:11.007Z,13.52
2022-11-24T20:43:39.707Z,13.36
2022-11-24T20:46:09.695Z,13.28
2022-11-24T20:48:38.500Z,13.10
2022-11-24T20:51:07.989Z,13.02
2022-11-24T20:53:36.920Z,13.23
2022-11-24T20:56:06.520Z,13.27
2022-11-24T20:58:37.552Z,13.18
2022-11-24T21:01:06.798Z,13.10
2022-11-24T21:03:38.427Z,13.06
2022-11-24T21:06:11.212Z,13.37
2022-11-24T21:08:40.328Z,13.35
2022-11-24T21:11:10.295Z,13.29
2022-11-24T21:13:40.529Z,13.43
2022-11-24T21:16:15.605Z,13.35
2022-11-24T21:18:44.517Z,13.24
2022-11-24T21:21:13.047Z,13.31
2022-11-24T21:23:41.164Z,13.23
2022-11-24T21:26:16.197Z,13.21
2022-11-24T21:28:47.907Z,13.10
2022-11-24T21:31:17.610Z,13.14
2022-11-24T21:33:47.135Z,13.22
2022-11-24T21:36:17.742Z,13.20
2022-11-24T21:38:52.291Z,13.23
2022-11-24T21:41:20.318Z,13.31
2022-11-24T21:43:50.003Z,13.28
2022-11-24T21:46:18.201Z,13.25
2022-11-24T21:48:46.135Z,13.22
2022-11-24T21:51:15.699Z,13.27
2022-11-24T21:53:44.994Z,13.02
2022-11-24T21:56:14.324Z,12.96
2022-11-24T21:58:47.111Z,13.10
2022-11-24T22:01:18.468Z,13.00
2022-11-24T22:03:46.781Z,13.14
2022-11-24T22:06:15.338Z,13.03
2022-11-24T22:08:43.092Z,13.04
2022-11-24T22:11:13.381Z,13.11
2022-11-24T22:13:41.402Z,13.11
2022-11-24T22:16:11.125Z,13.11
2022-11-24T22:18:42.236Z,13.15
2022-11-24T22:21:13.405Z,13.12
2022-11-24T22:23:41.317Z,13.15
2022-11-24T22:26:12.329Z,13.10
2022-11-24T22:28:40.387Z,13.13
2022-11-24T22:31:10.595Z,12.92
2022-11-24T22:33:38.448Z,12.99
2022-11-24T22:36:08.524Z,12.64
2022-11-24T22:38:36.476Z,12.93
2022-11-24T22:41:05.325Z,13.05
2022-11-24T22:43:33.724Z,13.11
2022-11-24T22:46:05.194Z,13.04
2022-11-24T22:48:33.439Z,12.93
2022-11-24T22:51:05.781Z,12.83
2022-11-24T22:53:35.673Z,12.86
2022-11-24T22:56:04.039Z,12.78
2022-11-24T22:58:32.888Z,12.74
2022-11-24T23:01:06.185Z,12.64
2022-11-24T23:03:34.903Z,12.65
2022-11-24T23:06:03.624Z,12.72
2022-11-24T23:08:33.198Z,12.69
2022-11-24T23:11:04.707Z,12.70
2022-11-24T23:13:32.735Z,12.69
2022-11-24T23:16:02.464Z,12.70
2022-11-24T23:18:30.307Z,12.71
2022-11-24T23:20:58.289Z,12.73
2022-11-24T23:23:26.093Z,12.72
2022-11-24T23:25:54.100Z,12.71
2022-11-24T23:28:23.191Z,12.69
2022-11-24T23:30:50.983Z,12.75
2022-11-24T23:33:18.748Z,12.62
2022-11-24T23:35:46.508Z,12.72
2022-11-24T23:38:14.260Z,12.61
2022-11-24T23:40:41.980Z,12.89
2022-11-24T23:43:09.751Z,13.04
2022-11-24T23:45:38.879Z,13.01
2022-11-24T23:48:08.526Z,13.02
2022-11-24T23:50:36.435Z,12.99
2022-11-24T23:53:04.249Z,12.85
2022-11-24T23:55:32.156Z,12.90
2022-11-24T23:57:59.888Z,12.62
